LFBU/ANG METAR and TAF weather

Enter ICAO airport designator
Station Type Date Time Source
LFBU METAR 2019/06/18 15:30 UTC NOAA

LFBU 181530Z AUTO 18010KT 140V210 CAVOK 30/14 Q1009 NOSIG


Station Type Date Time Source
LFBU Decoded METAR 2019/06/18 15:30 UTC NOAA

Station name not available
Jun 18, 2019 - 11:30 AM EDT / 2019.06.18 1530 UTC
Wind: from the S (180 degrees) at 12 MPH (10 KT) (direction variable):0
Visibility: greater than 7 mile(s):0
Temperature: 86 F (30 C)
Dew Point: 57 F (14 C)
Relative Humidity: 37%
Pressure (altimeter): 29.80 in. Hg (1009 hPa)
ob: LFBU 181530Z AUTO 18010KT 140V210 CAVOK 30/14 Q1009 NOSIG
cycle: 15

Station Type Date Time Source
LFBU TAF 2019/06/18 12:00 UTC NOAA

TAF LFBU 181100Z 1812/1912 12010KT CAVOK
BECMG 1820/1822 32010KT
TEMPO 1822/1903 -SHRA BKN070TCU PROB30
TEMPO 1822/1901 VRB15G30KT 4000 TSRAGR SCT015 BKN050CB
BECMG 1906/1908 27010KT

Example: see airport list